UAL5892 KDSM-KDEN
Flight info
| Callsign | UAL5892 |
|---|---|
| Flight time | 1h 29m |
| Altitude | 36000 |
| Route | BRWRY LAWGR4 |
| Aircraft | A320/M-SDE3FGHIRWY/LB1 |
Departure
| Time | 2026-05-06 15:45 |
|---|---|
| Airport | Des Moines International Airport (KDSM) |
Arrival
| Time | 2026-05-06 17:15 |
|---|---|
| Airport | Denver International Airport (KDEN) |
| Time | Latitude | Longitude | Altitude | Speed | Heading |
|---|---|---|---|---|---|
| 2026-05-06 15:09 | 41.53173 | -93.64974 | 912 ft | 0 kts | 301° |
| 2026-05-06 15:39 | 41.53164 | -93.64952 | 912 ft | 4 kts | 266° |
| 2026-05-06 15:39 | 41.53175 | -93.64928 | 917 ft | 4 kts | 202° |
| 2026-05-06 15:39 | 41.53180 | -93.64925 | 918 ft | 5 kts | 199° |
| 2026-05-06 15:42 | 41.53174 | -93.64928 | 920 ft | 5 kts | 199° |
| 2026-05-06 15:42 | 41.53106 | -93.64959 | 907 ft | 16 kts | 199° |
| 2026-05-06 15:42 | 41.53013 | -93.64959 | 903 ft | 12 kts | 137° |
| 2026-05-06 15:43 | 41.52937 | -93.64990 | 902 ft | 14 kts | 229° |
| 2026-05-06 15:43 | 41.52944 | -93.65087 | 902 ft | 4 kts | 310° |
| 2026-05-06 15:43 | 41.52945 | -93.65087 | 902 ft | 0 kts | 310° |
| 2026-05-06 15:44 | 41.52964 | -93.65118 | 900 ft | 24 kts | 310° |
| 2026-05-06 15:44 | 41.53236 | -93.65516 | 913 ft | 89 kts | 312° |
| 2026-05-06 15:45 | 41.53776 | -93.66302 | 914 ft | 139 kts | 313° |
| 2026-05-06 15:45 | 41.54466 | -93.67369 | 1215 ft | 155 kts | 308° |
| 2026-05-06 15:45 | 41.54834 | -93.68721 | 1773 ft | 164 kts | 266° |
| 2026-05-06 15:45 | 41.54686 | -93.69735 | 2245 ft | 164 kts | 261° |
| 2026-05-06 15:46 | 41.54491 | -93.71220 | 2852 ft | 167 kts | 265° |
| 2026-05-06 15:46 | 41.54352 | -93.72858 | 3114 ft | 189 kts | 266° |
| 2026-05-06 15:46 | 41.54214 | -93.74707 | 3341 ft | 213 kts | 267° |
| 2026-05-06 15:46 | 41.54058 | -93.76784 | 3642 ft | 237 kts | 267° |
| 2026-05-06 15:47 | 41.53885 | -93.79055 | 4282 ft | 251 kts | 266° |
| 2026-05-06 15:47 | 41.53705 | -93.81389 | 5235 ft | 254 kts | 267° |
| 2026-05-06 15:47 | 41.53519 | -93.83750 | 6208 ft | 257 kts | 267° |
| 2026-05-06 15:47 | 41.53329 | -93.86133 | 7046 ft | 260 kts | 266° |
| 2026-05-06 15:48 | 41.53134 | -93.88537 | 7918 ft | 261 kts | 266° |
| 2026-05-06 15:48 | 41.52939 | -93.90949 | 8775 ft | 262 kts | 266° |
| 2026-05-06 15:48 | 41.52745 | -93.93375 | 9656 ft | 263 kts | 266° |
| 2026-05-06 15:48 | 41.52551 | -93.95809 | 10449 ft | 265 kts | 266° |
| 2026-05-06 15:49 | 41.52350 | -93.98345 | 10762 ft | 286 kts | 266° |
| 2026-05-06 15:49 | 41.52134 | -94.01084 | 10944 ft | 307 kts | 266° |
| 2026-05-06 15:49 | 41.51904 | -94.03955 | 11493 ft | 314 kts | 265° |
| 2026-05-06 15:49 | 41.51668 | -94.06866 | 12197 ft | 317 kts | 265° |
| 2026-05-06 15:50 | 41.51427 | -94.09794 | 12925 ft | 319 kts | 265° |
| 2026-05-06 15:50 | 41.51183 | -94.12745 | 13653 ft | 321 kts | 265° |
| 2026-05-06 15:50 | 41.50938 | -94.15711 | 14325 ft | 322 kts | 265° |
| 2026-05-06 15:50 | 41.50691 | -94.18688 | 14971 ft | 323 kts | 265° |
| 2026-05-06 15:51 | 41.50443 | -94.21674 | 15594 ft | 324 kts | 265° |
| 2026-05-06 15:51 | 41.50197 | -94.24629 | 16235 ft | 325 kts | 265° |
| 2026-05-06 15:51 | 41.49943 | -94.27666 | 16895 ft | 326 kts | 265° |
| 2026-05-06 15:51 | 41.49697 | -94.30630 | 17554 ft | 326 kts | 265° |
| 2026-05-06 15:52 | 41.49445 | -94.33642 | 18241 ft | 327 kts | 265° |
| 2026-05-06 15:52 | 41.49193 | -94.36661 | 18847 ft | 328 kts | 264° |
| 2026-05-06 15:52 | 41.48939 | -94.39693 | 19444 ft | 329 kts | 264° |
| 2026-05-06 15:52 | 41.48685 | -94.42736 | 20055 ft | 330 kts | 264° |
| 2026-05-06 15:53 | 41.48429 | -94.45787 | 20674 ft | 331 kts | 263° |
| 2026-05-06 15:53 | 41.48170 | -94.48846 | 21263 ft | 332 kts | 263° |
| 2026-05-06 15:53 | 41.47912 | -94.51912 | 21829 ft | 333 kts | 263° |
| 2026-05-06 15:53 | 41.47650 | -94.54990 | 22369 ft | 335 kts | 263° |
| 2026-05-06 15:54 | 41.47385 | -94.58079 | 22913 ft | 336 kts | 262° |
| 2026-05-06 15:54 | 41.47115 | -94.61177 | 23458 ft | 337 kts | 262° |
| 2026-05-06 15:54 | 41.46846 | -94.64284 | 23897 ft | 338 kts | 262° |
| 2026-05-06 15:54 | 41.46575 | -94.67413 | 24266 ft | 341 kts | 262° |
| 2026-05-06 15:55 | 41.46302 | -94.70565 | 24651 ft | 343 kts | 262° |
| 2026-05-06 15:55 | 41.46025 | -94.73734 | 25038 ft | 345 kts | 262° |
| 2026-05-06 15:55 | 41.45744 | -94.76924 | 25414 ft | 347 kts | 262° |
| 2026-05-06 15:55 | 41.45462 | -94.80128 | 25788 ft | 349 kts | 262° |
| 2026-05-06 15:56 | 41.45177 | -94.83349 | 26156 ft | 351 kts | 262° |
| 2026-05-06 15:56 | 41.44889 | -94.86586 | 26516 ft | 353 kts | 262° |
| 2026-05-06 15:56 | 41.44600 | -94.89842 | 26875 ft | 355 kts | 262° |
| 2026-05-06 15:56 | 41.44311 | -94.93114 | 27233 ft | 356 kts | 262° |
| 2026-05-06 15:57 | 41.44024 | -94.96361 | 27584 ft | 358 kts | 262° |
| 2026-05-06 15:57 | 41.43731 | -94.99670 | 27923 ft | 360 kts | 262° |
| 2026-05-06 15:57 | 41.43433 | -95.02994 | 28264 ft | 362 kts | 262° |
| 2026-05-06 15:57 | 41.43133 | -95.06333 | 28604 ft | 364 kts | 262° |
| 2026-05-06 15:58 | 41.42832 | -95.09691 | 28930 ft | 366 kts | 261° |
| 2026-05-06 15:58 | 41.42527 | -95.13058 | 29353 ft | 366 kts | 261° |
| 2026-05-06 15:58 | 41.42224 | -95.16412 | 29859 ft | 364 kts | 261° |
| 2026-05-06 15:58 | 41.41919 | -95.19747 | 30336 ft | 362 kts | 261° |
| 2026-05-06 15:59 | 41.41617 | -95.23075 | 30741 ft | 361 kts | 261° |
| 2026-05-06 15:59 | 41.41316 | -95.26385 | 31141 ft | 360 kts | 261° |
| 2026-05-06 15:59 | 41.41012 | -95.29691 | 31541 ft | 359 kts | 261° |
| 2026-05-06 15:59 | 41.40708 | -95.32981 | 31953 ft | 358 kts | 262° |
| 2026-05-06 16:00 | 41.40403 | -95.36271 | 32328 ft | 358 kts | 262° |
| 2026-05-06 16:00 | 41.40096 | -95.39566 | 32679 ft | 359 kts | 262° |
| 2026-05-06 16:00 | 41.39787 | -95.42865 | 33050 ft | 359 kts | 262° |
| 2026-05-06 16:00 | 41.39479 | -95.46157 | 33442 ft | 358 kts | 262° |
| 2026-05-06 16:01 | 41.39170 | -95.49447 | 33842 ft | 358 kts | 262° |
| 2026-05-06 16:01 | 41.38858 | -95.52736 | 34214 ft | 357 kts | 262° |
| 2026-05-06 16:01 | 41.38546 | -95.56015 | 34512 ft | 357 kts | 262° |
| 2026-05-06 16:01 | 41.38233 | -95.59296 | 34809 ft | 357 kts | 262° |
| 2026-05-06 16:02 | 41.37921 | -95.62574 | 35094 ft | 357 kts | 262° |
| 2026-05-06 16:02 | 41.37610 | -95.65851 | 35369 ft | 357 kts | 262° |
| 2026-05-06 16:02 | 41.37299 | -95.69123 | 35643 ft | 356 kts | 262° |
| 2026-05-06 16:02 | 41.36989 | -95.72396 | 35904 ft | 357 kts | 262° |
| 2026-05-06 16:03 | 41.36677 | -95.75674 | 36090 ft | 358 kts | 262° |
| 2026-05-06 16:03 | 41.36360 | -95.78970 | 36168 ft | 361 kts | 262° |
| 2026-05-06 16:03 | 41.35709 | -95.85702 | 36174 ft | 370 kts | 262° |
| 2026-05-06 16:04 | 41.35044 | -95.92515 | 36175 ft | 373 kts | 262° |
| 2026-05-06 16:04 | 41.34358 | -95.99464 | 36175 ft | 384 kts | 262° |
| 2026-05-06 16:05 | 41.33659 | -96.06569 | 36174 ft | 389 kts | 262° |
| 2026-05-06 16:05 | 41.32954 | -96.13677 | 36173 ft | 391 kts | 262° |
| 2026-05-06 16:06 | 41.32236 | -96.20861 | 36173 ft | 392 kts | 262° |
| 2026-05-06 16:06 | 41.31511 | -96.28051 | 36175 ft | 392 kts | 262° |
| 2026-05-06 16:07 | 41.30778 | -96.35262 | 36184 ft | 393 kts | 262° |
| 2026-05-06 16:07 | 41.30045 | -96.42462 | 36190 ft | 393 kts | 261° |
| 2026-05-06 16:08 | 41.29304 | -96.49674 | 36186 ft | 394 kts | 261° |
| 2026-05-06 16:08 | 41.28560 | -96.56887 | 36194 ft | 394 kts | 261° |
| 2026-05-06 16:09 | 41.27812 | -96.64107 | 36197 ft | 394 kts | 261° |
| 2026-05-06 16:09 | 41.27054 | -96.71327 | 36199 ft | 394 kts | 261° |
| 2026-05-06 16:10 | 41.26290 | -96.78544 | 36200 ft | 394 kts | 261° |
| 2026-05-06 16:10 | 41.25530 | -96.85764 | 36208 ft | 395 kts | 261° |
| 2026-05-06 16:11 | 41.24766 | -96.92998 | 36203 ft | 395 kts | 261° |
| 2026-05-06 16:11 | 41.23998 | -97.00185 | 36206 ft | 396 kts | 261° |
| 2026-05-06 16:12 | 41.23211 | -97.07430 | 36203 ft | 396 kts | 261° |
| 2026-05-06 16:12 | 41.22421 | -97.14675 | 36204 ft | 396 kts | 261° |
| 2026-05-06 16:13 | 41.21634 | -97.21926 | 36204 ft | 396 kts | 261° |
| 2026-05-06 16:13 | 41.20840 | -97.29177 | 36204 ft | 397 kts | 261° |
| 2026-05-06 16:14 | 41.20036 | -97.36428 | 36207 ft | 397 kts | 261° |
| 2026-05-06 16:14 | 41.19232 | -97.43670 | 36208 ft | 397 kts | 261° |
| 2026-05-06 16:15 | 41.18424 | -97.50915 | 36209 ft | 397 kts | 261° |
| 2026-05-06 16:15 | 41.17608 | -97.58156 | 36213 ft | 397 kts | 261° |
| 2026-05-06 16:16 | 41.16790 | -97.65403 | 36206 ft | 397 kts | 261° |
| 2026-05-06 16:16 | 41.15965 | -97.72659 | 36205 ft | 398 kts | 261° |
| 2026-05-06 16:17 | 41.15133 | -97.79913 | 36206 ft | 398 kts | 261° |
| 2026-05-06 16:17 | 41.14305 | -97.87126 | 36209 ft | 398 kts | 261° |
| 2026-05-06 16:18 | 41.13476 | -97.94385 | 36212 ft | 398 kts | 261° |
| 2026-05-06 16:18 | 41.12633 | -98.01643 | 36211 ft | 398 kts | 261° |
| 2026-05-06 16:19 | 41.11779 | -98.08904 | 36211 ft | 399 kts | 261° |
| 2026-05-06 16:19 | 41.10921 | -98.16167 | 36211 ft | 399 kts | 261° |
| 2026-05-06 16:20 | 41.10056 | -98.23435 | 36212 ft | 399 kts | 261° |
| 2026-05-06 16:20 | 41.09193 | -98.30697 | 36212 ft | 399 kts | 261° |
| 2026-05-06 16:21 | 41.08332 | -98.37966 | 36213 ft | 399 kts | 261° |
| 2026-05-06 16:21 | 41.07461 | -98.45234 | 36212 ft | 399 kts | 261° |
| 2026-05-06 16:22 | 41.06583 | -98.52505 | 36207 ft | 400 kts | 261° |
| 2026-05-06 16:22 | 41.05693 | -98.59773 | 36207 ft | 400 kts | 260° |
| 2026-05-06 16:23 | 41.04799 | -98.67039 | 36207 ft | 400 kts | 260° |
| 2026-05-06 16:23 | 41.03912 | -98.74313 | 36206 ft | 400 kts | 260° |
| 2026-05-06 16:24 | 41.03018 | -98.81589 | 36202 ft | 400 kts | 260° |
| 2026-05-06 16:24 | 41.02108 | -98.88867 | 36202 ft | 401 kts | 260° |
| 2026-05-06 16:25 | 41.01200 | -98.96094 | 36200 ft | 401 kts | 260° |
| 2026-05-06 16:25 | 41.00284 | -99.03375 | 36200 ft | 401 kts | 260° |
| 2026-05-06 16:26 | 40.99366 | -99.10660 | 36205 ft | 401 kts | 260° |
| 2026-05-06 16:26 | 40.98446 | -99.17952 | 36199 ft | 402 kts | 260° |
| 2026-05-06 16:27 | 40.97521 | -99.25243 | 36161 ft | 402 kts | 260° |
| 2026-05-06 16:27 | 40.96587 | -99.32544 | 36182 ft | 402 kts | 260° |
| 2026-05-06 16:28 | 40.95647 | -99.39823 | 36193 ft | 402 kts | 260° |
| 2026-05-06 16:28 | 40.94700 | -99.47110 | 36204 ft | 402 kts | 260° |
| 2026-05-06 16:29 | 40.93749 | -99.54392 | 36205 ft | 402 kts | 260° |
| 2026-05-06 16:29 | 40.92798 | -99.61682 | 36207 ft | 402 kts | 260° |
| 2026-05-06 16:30 | 40.92163 | -99.66510 | 36206 ft | 402 kts | 259° |
| 2026-05-06 16:30 | 40.90868 | -99.76259 | 36208 ft | 403 kts | 259° |
| 2026-05-06 16:31 | 40.90065 | -99.82317 | 36210 ft | 403 kts | 259° |
| 2026-05-06 16:31 | 40.89090 | -99.89612 | 36205 ft | 403 kts | 259° |
| 2026-05-06 16:32 | 40.88111 | -99.96918 | 36202 ft | 404 kts | 259° |
| 2026-05-06 16:32 | 40.87125 | -100.04235 | 36202 ft | 404 kts | 259° |
| 2026-05-06 16:33 | 40.86138 | -100.11553 | 36201 ft | 405 kts | 259° |
| 2026-05-06 16:34 | 40.84639 | -100.22529 | 36193 ft | 405 kts | 259° |
| 2026-05-06 16:34 | 40.83638 | -100.29864 | 36191 ft | 406 kts | 259° |
| 2026-05-06 16:35 | 40.82630 | -100.37202 | 36193 ft | 406 kts | 259° |
| 2026-05-06 16:35 | 40.81616 | -100.44506 | 36197 ft | 407 kts | 259° |
| 2026-05-06 16:36 | 40.80592 | -100.51858 | 36200 ft | 407 kts | 259° |
| 2026-05-06 16:36 | 40.79562 | -100.59205 | 36197 ft | 407 kts | 259° |
| 2026-05-06 16:37 | 40.78527 | -100.66559 | 36196 ft | 408 kts | 258° |
| 2026-05-06 16:37 | 40.77352 | -100.73887 | 36198 ft | 408 kts | 257° |
| 2026-05-06 16:38 | 40.76068 | -100.81193 | 36199 ft | 409 kts | 257° |
| 2026-05-06 16:38 | 40.74788 | -100.88495 | 36204 ft | 409 kts | 257° |
| 2026-05-06 16:39 | 40.73534 | -100.95819 | 36204 ft | 409 kts | 257° |
| 2026-05-06 16:39 | 40.72286 | -101.03136 | 36210 ft | 409 kts | 257° |
| 2026-05-06 16:40 | 40.71025 | -101.10446 | 36205 ft | 409 kts | 257° |
| 2026-05-06 16:40 | 40.69756 | -101.17761 | 36221 ft | 409 kts | 257° |
| 2026-05-06 16:41 | 40.68476 | -101.25067 | 36215 ft | 409 kts | 257° |
| 2026-05-06 16:41 | 40.67189 | -101.32374 | 36203 ft | 410 kts | 257° |
| 2026-05-06 16:42 | 40.65896 | -101.39726 | 36177 ft | 413 kts | 257° |
| 2026-05-06 16:42 | 40.64594 | -101.47115 | 36174 ft | 415 kts | 257° |
| 2026-05-06 16:43 | 40.63274 | -101.54532 | 36177 ft | 417 kts | 257° |
| 2026-05-06 16:43 | 40.61951 | -101.61923 | 36183 ft | 418 kts | 257° |
| 2026-05-06 16:44 | 40.60620 | -101.69373 | 36182 ft | 419 kts | 257° |
| 2026-05-06 16:44 | 40.59283 | -101.76840 | 36184 ft | 420 kts | 257° |
| 2026-05-06 16:45 | 40.57932 | -101.84322 | 36188 ft | 421 kts | 257° |
| 2026-05-06 16:45 | 40.56571 | -101.91808 | 36195 ft | 421 kts | 257° |
| 2026-05-06 16:46 | 40.55203 | -101.99303 | 36201 ft | 422 kts | 257° |
| 2026-05-06 16:46 | 40.53824 | -102.06799 | 36193 ft | 422 kts | 257° |
| 2026-05-06 16:47 | 40.52426 | -102.14309 | 36197 ft | 423 kts | 257° |
| 2026-05-06 16:47 | 40.51027 | -102.21834 | 36207 ft | 424 kts | 257° |
| 2026-05-06 16:48 | 40.49623 | -102.29354 | 36212 ft | 424 kts | 257° |
| 2026-05-06 16:48 | 40.48204 | -102.36884 | 36214 ft | 424 kts | 257° |
| 2026-05-06 16:49 | 40.46778 | -102.44413 | 36208 ft | 425 kts | 257° |
| 2026-05-06 16:49 | 40.46070 | -102.48158 | 35807 ft | 422 kts | 257° |
| 2026-05-06 16:49 | 40.45359 | -102.51924 | 34910 ft | 425 kts | 257° |
| 2026-05-06 16:49 | 40.44653 | -102.55655 | 34405 ft | 419 kts | 257° |
| 2026-05-06 16:50 | 40.43950 | -102.59349 | 33694 ft | 415 kts | 256° |
| 2026-05-06 16:50 | 40.43252 | -102.63005 | 33054 ft | 411 kts | 256° |
| 2026-05-06 16:50 | 40.42555 | -102.66647 | 32167 ft | 412 kts | 256° |
| 2026-05-06 16:50 | 40.41863 | -102.70264 | 31775 ft | 404 kts | 256° |
| 2026-05-06 16:51 | 40.41184 | -102.73804 | 31363 ft | 396 kts | 256° |
| 2026-05-06 16:51 | 40.40512 | -102.77288 | 30972 ft | 391 kts | 256° |
| 2026-05-06 16:51 | 40.39842 | -102.80745 | 30602 ft | 391 kts | 257° |
| 2026-05-06 16:51 | 40.39172 | -102.84195 | 30213 ft | 390 kts | 257° |
| 2026-05-06 16:52 | 40.38507 | -102.87624 | 29803 ft | 387 kts | 257° |
| 2026-05-06 16:52 | 40.37854 | -102.90999 | 29437 ft | 385 kts | 256° |
| 2026-05-06 16:52 | 40.37195 | -102.94386 | 29065 ft | 382 kts | 256° |
| 2026-05-06 16:52 | 40.36539 | -102.97744 | 28697 ft | 379 kts | 256° |
| 2026-05-06 16:53 | 40.35886 | -103.01078 | 28334 ft | 376 kts | 256° |
| 2026-05-06 16:53 | 40.35239 | -103.04387 | 27973 ft | 373 kts | 256° |
| 2026-05-06 16:53 | 40.34599 | -103.07668 | 27611 ft | 370 kts | 256° |
| 2026-05-06 16:53 | 40.33965 | -103.10931 | 27260 ft | 368 kts | 256° |
| 2026-05-06 16:54 | 40.33337 | -103.14164 | 26878 ft | 365 kts | 256° |
| 2026-05-06 16:54 | 40.32710 | -103.17388 | 26530 ft | 364 kts | 256° |
| 2026-05-06 16:54 | 40.32083 | -103.20596 | 26180 ft | 362 kts | 256° |
| 2026-05-06 16:54 | 40.31458 | -103.23778 | 25831 ft | 360 kts | 256° |
| 2026-05-06 16:55 | 40.30836 | -103.26940 | 25479 ft | 357 kts | 256° |
| 2026-05-06 16:55 | 40.30217 | -103.30076 | 25144 ft | 354 kts | 256° |
| 2026-05-06 16:55 | 40.29598 | -103.33191 | 24800 ft | 352 kts | 256° |
| 2026-05-06 16:55 | 40.28982 | -103.36280 | 24456 ft | 349 kts | 256° |
| 2026-05-06 16:56 | 40.28370 | -103.39348 | 24123 ft | 347 kts | 256° |
| 2026-05-06 16:56 | 40.27761 | -103.42398 | 23790 ft | 344 kts | 255° |
| 2026-05-06 16:56 | 40.27155 | -103.45422 | 23414 ft | 343 kts | 255° |
| 2026-05-06 16:56 | 40.26553 | -103.48434 | 23086 ft | 342 kts | 255° |
| 2026-05-06 16:57 | 40.25950 | -103.51446 | 22759 ft | 342 kts | 256° |
| 2026-05-06 16:57 | 40.25347 | -103.54460 | 22430 ft | 342 kts | 256° |
| 2026-05-06 16:57 | 40.24744 | -103.57471 | 22100 ft | 341 kts | 256° |
| 2026-05-06 16:57 | 40.24144 | -103.60474 | 21802 ft | 341 kts | 256° |
| 2026-05-06 16:58 | 40.23549 | -103.63472 | 21496 ft | 340 kts | 256° |
| 2026-05-06 16:58 | 40.22957 | -103.66469 | 21190 ft | 340 kts | 256° |
| 2026-05-06 16:58 | 40.22366 | -103.69463 | 20886 ft | 339 kts | 256° |
| 2026-05-06 16:58 | 40.21776 | -103.72448 | 20583 ft | 339 kts | 256° |
| 2026-05-06 16:59 | 40.21192 | -103.75386 | 20286 ft | 338 kts | 256° |
| 2026-05-06 16:59 | 40.20598 | -103.78360 | 19983 ft | 338 kts | 255° |
| 2026-05-06 16:59 | 40.20002 | -103.81330 | 19680 ft | 337 kts | 255° |
| 2026-05-06 16:59 | 40.19413 | -103.84273 | 19442 ft | 329 kts | 255° |
| 2026-05-06 17:00 | 40.18845 | -103.87115 | 19306 ft | 317 kts | 256° |
| 2026-05-06 17:00 | 40.18281 | -103.89859 | 19129 ft | 308 kts | 252° |
| 2026-05-06 17:00 | 40.17404 | -103.92378 | 18894 ft | 304 kts | 240° |
| 2026-05-06 17:00 | 40.16291 | -103.94729 | 18651 ft | 303 kts | 239° |
| 2026-05-06 17:01 | 40.15178 | -103.97070 | 18404 ft | 303 kts | 239° |
| 2026-05-06 17:01 | 40.14067 | -103.99411 | 18130 ft | 303 kts | 239° |
| 2026-05-06 17:01 | 40.12958 | -104.01752 | 17856 ft | 303 kts | 240° |
| 2026-05-06 17:01 | 40.11854 | -104.04090 | 17584 ft | 302 kts | 240° |
| 2026-05-06 17:02 | 40.10749 | -104.06431 | 17308 ft | 302 kts | 240° |
| 2026-05-06 17:02 | 40.09648 | -104.08765 | 17034 ft | 302 kts | 240° |
| 2026-05-06 17:02 | 40.08546 | -104.11097 | 16782 ft | 302 kts | 240° |
| 2026-05-06 17:02 | 40.07444 | -104.13427 | 16517 ft | 301 kts | 240° |
| 2026-05-06 17:03 | 40.06344 | -104.15754 | 16252 ft | 301 kts | 240° |
| 2026-05-06 17:03 | 40.05244 | -104.18076 | 15995 ft | 301 kts | 239° |
| 2026-05-06 17:03 | 40.04126 | -104.20446 | 15744 ft | 319 kts | 240° |
| 2026-05-06 17:03 | 40.02948 | -104.22972 | 15483 ft | 330 kts | 240° |
| 2026-05-06 17:04 | 40.01752 | -104.25547 | 15222 ft | 332 kts | 240° |
| 2026-05-06 17:04 | 40.00548 | -104.28103 | 14977 ft | 335 kts | 239° |
| 2026-05-06 17:04 | 39.99311 | -104.30683 | 14731 ft | 335 kts | 239° |
| 2026-05-06 17:04 | 39.98066 | -104.33248 | 14483 ft | 334 kts | 239° |
| 2026-05-06 17:05 | 39.96820 | -104.35804 | 14241 ft | 334 kts | 238° |
| 2026-05-06 17:05 | 39.95577 | -104.38353 | 13992 ft | 333 kts | 238° |
| 2026-05-06 17:05 | 39.94340 | -104.40898 | 13565 ft | 332 kts | 239° |
| 2026-05-06 17:05 | 39.93115 | -104.43432 | 13082 ft | 329 kts | 239° |
| 2026-05-06 17:06 | 39.91903 | -104.45945 | 12606 ft | 327 kts | 236° |
| 2026-05-06 17:06 | 39.90366 | -104.48113 | 12130 ft | 327 kts | 218° |
| 2026-05-06 17:06 | 39.88383 | -104.49519 | 11660 ft | 326 kts | 199° |
| 2026-05-06 17:06 | 39.86158 | -104.49995 | 11299 ft | 322 kts | 181° |
| 2026-05-06 17:07 | 39.83913 | -104.50010 | 11170 ft | 325 kts | 181° |
| 2026-05-06 17:07 | 39.81657 | -104.50038 | 10947 ft | 321 kts | 180° |
| 2026-05-06 17:07 | 39.79445 | -104.50067 | 10655 ft | 315 kts | 180° |
| 2026-05-06 17:07 | 39.77273 | -104.50090 | 10338 ft | 310 kts | 180° |
| 2026-05-06 17:08 | 39.75153 | -104.50107 | 10005 ft | 298 kts | 180° |
| 2026-05-06 17:08 | 39.73119 | -104.50117 | 9656 ft | 287 kts | 179° |
| 2026-05-06 17:08 | 39.71132 | -104.50125 | 9304 ft | 284 kts | 180° |
| 2026-05-06 17:08 | 39.69160 | -104.50133 | 9024 ft | 283 kts | 180° |
| 2026-05-06 17:09 | 39.67190 | -104.50140 | 8985 ft | 283 kts | 180° |
| 2026-05-06 17:09 | 39.65239 | -104.50459 | 8984 ft | 285 kts | 200° |
| 2026-05-06 17:09 | 39.63572 | -104.51797 | 8816 ft | 283 kts | 226° |
| 2026-05-06 17:09 | 39.62555 | -104.53951 | 8604 ft | 282 kts | 253° |
| 2026-05-06 17:10 | 39.62292 | -104.56426 | 8394 ft | 274 kts | 273° |
| 2026-05-06 17:10 | 39.62452 | -104.58830 | 8170 ft | 268 kts | 281° |
| 2026-05-06 17:10 | 39.62905 | -104.61096 | 8009 ft | 250 kts | 296° |
| 2026-05-06 17:10 | 39.63920 | -104.62752 | 7972 ft | 226 kts | 327° |
| 2026-05-06 17:11 | 39.65253 | -104.63713 | 8006 ft | 214 kts | 336° |
| 2026-05-06 17:11 | 39.66595 | -104.64524 | 7992 ft | 211 kts | 337° |
| 2026-05-06 17:11 | 39.67931 | -104.65305 | 7980 ft | 210 kts | 337° |
| 2026-05-06 17:11 | 39.69270 | -104.66051 | 7979 ft | 209 kts | 345° |
| 2026-05-06 17:12 | 39.70704 | -104.66220 | 7896 ft | 208 kts | 1° |
| 2026-05-06 17:12 | 39.72148 | -104.66191 | 7659 ft | 206 kts | 2° |
| 2026-05-06 17:12 | 39.73577 | -104.66167 | 7393 ft | 204 kts | 2° |
| 2026-05-06 17:12 | 39.74992 | -104.66149 | 7122 ft | 202 kts | 1° |
| 2026-05-06 17:13 | 39.76382 | -104.66132 | 6858 ft | 197 kts | 2° |
| 2026-05-06 17:13 | 39.77710 | -104.66117 | 6618 ft | 184 kts | 2° |
| 2026-05-06 17:13 | 39.78918 | -104.66103 | 6349 ft | 161 kts | 1° |
| 2026-05-06 17:13 | 39.79986 | -104.66091 | 6084 ft | 148 kts | 3° |
| 2026-05-06 17:14 | 39.80989 | -104.66078 | 5856 ft | 143 kts | 4° |
| 2026-05-06 17:14 | 39.81977 | -104.66066 | 5662 ft | 141 kts | 4° |
| 2026-05-06 17:14 | 39.82955 | -104.66053 | 5480 ft | 140 kts | 4° |
| 2026-05-06 17:14 | 39.83854 | -104.66039 | 5422 ft | 111 kts | 1° |
| 2026-05-06 17:15 | 39.84452 | -104.66035 | 5403 ft | 55 kts | 360° |
| 2026-05-06 17:15 | 39.84746 | -104.66059 | 5406 ft | 38 kts | 345° |
| 2026-05-06 17:15 | 39.84879 | -104.66135 | 5403 ft | 19 kts | 329° |
| 2026-05-06 17:15 | 39.84889 | -104.66143 | 5402 ft | 0 kts | 329° |
| 2026-05-06 17:16 | 39.84955 | -104.66193 | 5403 ft | 19 kts | 330° |
| 2026-05-06 17:16 | 39.85080 | -104.66243 | 5395 ft | 19 kts | 359° |
| 2026-05-06 17:16 | 39.85161 | -104.66241 | 5394 ft | 11 kts | 1° |
| 2026-05-06 17:16 | 39.85233 | -104.66245 | 5393 ft | 10 kts | 357° |
| 2026-05-06 17:17 | 39.85277 | -104.66244 | 5394 ft | 9 kts | 4° |
| 2026-05-06 17:17 | 39.85332 | -104.66239 | 5392 ft | 7 kts | 4° |
| 2026-05-06 17:17 | 39.85376 | -104.66235 | 5392 ft | 8 kts | 2° |
| 2026-05-06 17:17 | 39.85455 | -104.66238 | 5392 ft | 12 kts | 358° |
| 2026-05-06 17:18 | 39.85532 | -104.66239 | 5388 ft | 10 kts | 2° |
| 2026-05-06 17:18 | 39.85605 | -104.66238 | 5394 ft | 11 kts | 0° |
| 2026-05-06 17:18 | 39.85673 | -104.66263 | 5389 ft | 11 kts | 304° |
| 2026-05-06 17:18 | 39.85679 | -104.66365 | 5386 ft | 12 kts | 271° |
| 2026-05-06 17:19 | 39.85680 | -104.66482 | 5382 ft | 13 kts | 269° |
| 2026-05-06 17:19 | 39.85661 | -104.66588 | 5380 ft | 11 kts | 263° |
| 2026-05-06 17:19 | 39.85659 | -104.66670 | 5381 ft | 7 kts | 269° |
| 2026-05-06 17:19 | 39.85660 | -104.66733 | 5381 ft | 10 kts | 272° |
| 2026-05-06 17:20 | 39.85689 | -104.66814 | 5377 ft | 9 kts | 330° |
| 2026-05-06 17:20 | 39.85730 | -104.66870 | 5377 ft | 12 kts | 279° |
| 2026-05-06 17:20 | 39.85729 | -104.67002 | 5380 ft | 14 kts | 271° |
| 2026-05-06 17:20 | 39.85730 | -104.67117 | 5380 ft | 11 kts | 273° |
| 2026-05-06 17:21 | 39.85775 | -104.67143 | 5377 ft | 6 kts | 359° |
| 2026-05-06 17:21 | 39.85800 | -104.67142 | 5378 ft | 0 kts | 0° |